首页
METAR-TAF:

METAR-TAF

机场 :

達爾文國際機場

达尔文, 澳大利亚

纬度: 12-24S, 经度: 130-52E, 海拔: 31米

当前天气观测

该预报发布于24分钟前的02:00 UTC
风速13节,风向西转西北
温度 31°C
湿度 75%
气压 1008 hPa
能见度10公里或以上
少量云层高于2100英尺
多云层高于38000英尺
少量云层高于2100英尺, 塔状积云.

METAR: YPDN 230200Z 29013KT 9999 FEW021 BKN380 FEW021TCU 31/26 Q1008 INTER 0200/0500 2000 SHRA BKN010

时间: 11:54 (02:24 UTC)

预报

该预报发布于3小时和14分钟前的23:10 UTC
预报有效从23日的 00点(UTC)到 24日的 06点(UTC)
风速12节,风向西
能見度: 2000
散云层高于2000英尺
多云层高于1000英尺
小阵雨, 阵雨
几率 30% :
短暂存在
从 23日的 04点(UTC)到 23日的 20点(UTC)
风速25节,风向多变,有时为40节阵风
能見度: 0800
多云层高于800英尺
散云层高于1500英尺, 积雨云.
雷暴, 雨
几率 30% :
短暂存在
从 24日的 04点(UTC)到 24日的 06点(UTC)
风速25节,风向多变,有时为40节阵风
能見度: 0800
多云层高于800英尺
散云层高于1500英尺, 积雨云.
雷暴, 雨

TAF: YPDN 222310Z 2300/2406 27012KT 9999 -SHRA SCT020 INTER 2302/2406 2000 SHRA BKN010 PROB30 TEMPO 2304/2320 VRB25G40KT 0800 TSRA BKN008 SCT015CB PROB30 TEMPO 2404/2406 VRB25G40KT 0800 TSRA BKN008 SCT015CB

超过4000个机场的气象观测和天气预报(METAR&TAF报告)。

可查询的气象台以黄色和红色小点在地图上表示。

将鼠标移到小点上方,可查看气象台名称。

然后点击查看天气观测和预报。

如需切换地图:点击带黑十字的绿色按钮放大地图;点击带横线的绿色按钮缩小地图;或者点击绿色箭头查看邻近地区的地图。


METAR-TAF: